Austin, Nevada
Current Conditions -  °F | °C
As of 3:56 AM on Monday 20 Oct 2014 (Local Time) from KNFL Reporting Station
Clear Clear  
Wind Chill: 45°   Ceiling: Unl
Heat Index: 48°   Visibility: 10mi
Dew Point: 27°   Wind: 6mph
Humidity: 44%   Direction: 240°WSW
Pressure: 29.91"   Gusts: NA
Location:  39.49°N, 117.07°W
Report Text: KNFL 201056Z AUTO 24005KT 10SM CLR 09/M03 A2991 RMK AO2 SLP103 T00891028
Loading
Personal Weather Stations






























Interactive Weather Map
Tropical Storm Tracking
New forecast layout! Learn more

10-Day Weather Forecast

Advertisements
Track Severe Weather on mobile